sensor_id;sensor_type;location;lat;lon;timestamp;P1;durP1;ratioP1;P2;durP2;ratioP2
15126;SDS011;7664;52.008;4.748;2023-08-31T00:02:31;3.13;;;0.80;;
15126;SDS011;7664;52.008;4.748;2023-08-31T00:05:00;1.58;;;1.10;;
15126;SDS011;7664;52.008;4.748;2023-08-31T00:07:29;3.97;;;1.48;;
15126;SDS011;7664;52.008;4.748;2023-08-31T00:09:58;1.90;;;1.13;;
15126;SDS011;7664;52.008;4.748;2023-08-31T00:12:26;1.98;;;1.10;;
15126;SDS011;7664;52.008;4.748;2023-08-31T00:14:55;2.40;;;0.80;;
15126;SDS011;7664;52.008;4.748;2023-08-31T00:17:23;1.95;;;0.90;;
15126;SDS011;7664;52.008;4.748;2023-08-31T00:19:51;1.77;;;0.82;;
15126;SDS011;7664;52.008;4.748;2023-08-31T00:22:19;3.05;;;1.20;;
15126;SDS011;7664;52.008;4.748;2023-08-31T00:24:48;2.53;;;1.23;;
15126;SDS011;7664;52.008;4.748;2023-08-31T00:27:17;1.55;;;0.93;;
15126;SDS011;7664;52.008;4.748;2023-08-31T00:29:46;2.40;;;0.80;;
15126;SDS011;7664;52.008;4.748;2023-08-31T00:32:17;2.92;;;1.30;;
15126;SDS011;7664;52.008;4.748;2023-08-31T00:34:45;2.20;;;1.02;;
15126;SDS011;7664;52.008;4.748;2023-08-31T00:37:13;1.63;;;0.88;;
15126;SDS011;7664;52.008;4.748;2023-08-31T00:39:41;2.25;;;1.10;;
15126;SDS011;7664;52.008;4.748;2023-08-31T00:42:11;2.17;;;1.10;;
15126;SDS011;7664;52.008;4.748;2023-08-31T00:44:40;1.55;;;0.95;;
15126;SDS011;7664;52.008;4.748;2023-08-31T00:47:08;1.08;;;0.70;;
15126;SDS011;7664;52.008;4.748;2023-08-31T00:49:37;3.13;;;1.00;;
15126;SDS011;7664;52.008;4.748;2023-08-31T00:52:06;1.65;;;0.88;;
15126;SDS011;7664;52.008;4.748;2023-08-31T00:54:34;2.28;;;0.98;;
15126;SDS011;7664;52.008;4.748;2023-08-31T00:57:04;1.95;;;0.98;;
15126;SDS011;7664;52.008;4.748;2023-08-31T00:59:34;2.60;;;1.02;;
15126;SDS011;7664;52.008;4.748;2023-08-31T01:02:03;3.28;;;1.10;;
15126;SDS011;7664;52.008;4.748;2023-08-31T01:04:38;1.65;;;0.93;;
15126;SDS011;7664;52.008;4.748;2023-08-31T01:07:15;1.40;;;0.90;;
15126;SDS011;7664;52.008;4.748;2023-08-31T01:09:50;3.42;;;0.90;;
15126;SDS011;7664;52.008;4.748;2023-08-31T01:12:26;1.73;;;0.90;;
15126;SDS011;7664;52.008;4.748;2023-08-31T01:15:04;1.45;;;1.15;;
15126;SDS011;7664;52.008;4.748;2023-08-31T01:17:36;1.85;;;0.95;;
15126;SDS011;7664;52.008;4.748;2023-08-31T01:20:11;3.47;;;1.23;;
15126;SDS011;7664;52.008;4.748;2023-08-31T01:22:47;1.80;;;1.27;;
15126;SDS011;7664;52.008;4.748;2023-08-31T01:25:20;5.13;;;1.35;;
15126;SDS011;7664;52.008;4.748;2023-08-31T01:27:48;1.88;;;0.95;;
15126;SDS011;7664;52.008;4.748;2023-08-31T01:30:16;3.13;;;1.20;;
15126;SDS011;7664;52.008;4.748;2023-08-31T01:32:45;3.35;;;1.20;;
15126;SDS011;7664;52.008;4.748;2023-08-31T01:35:14;2.00;;;1.00;;
15126;SDS011;7664;52.008;4.748;2023-08-31T01:37:50;2.40;;;1.05;;
15126;SDS011;7664;52.008;4.748;2023-08-31T01:40:22;1.50;;;0.95;;
15126;SDS011;7664;52.008;4.748;2023-08-31T01:42:55;2.05;;;1.27;;
15126;SDS011;7664;52.008;4.748;2023-08-31T01:45:23;1.52;;;1.00;;
15126;SDS011;7664;52.008;4.748;2023-08-31T01:47:52;1.23;;;0.82;;
15126;SDS011;7664;52.008;4.748;2023-08-31T01:50:20;2.25;;;0.90;;
15126;SDS011;7664;52.008;4.748;2023-08-31T01:52:48;1.00;;;0.98;;
15126;SDS011;7664;52.008;4.748;2023-08-31T01:55:17;3.33;;;1.20;;
15126;SDS011;7664;52.008;4.748;2023-08-31T01:57:46;1.15;;;0.98;;
15126;SDS011;7664;52.008;4.748;2023-08-31T02:00:21;1.33;;;0.95;;
15126;SDS011;7664;52.008;4.748;2023-08-31T02:02:50;2.25;;;0.90;;
15126;SDS011;7664;52.008;4.748;2023-08-31T02:05:18;3.17;;;0.90;;
15126;SDS011;7664;52.008;4.748;2023-08-31T02:07:46;0.75;;;0.68;;
15126;SDS011;7664;52.008;4.748;2023-08-31T02:10:15;2.15;;;0.60;;
15126;SDS011;7664;52.008;4.748;2023-08-31T02:12:43;0.70;;;0.70;;
15126;SDS011;7664;52.008;4.748;2023-08-31T02:15:13;1.63;;;0.80;;
15126;SDS011;7664;52.008;4.748;2023-08-31T02:17:41;1.08;;;0.75;;
15126;SDS011;7664;52.008;4.748;2023-08-31T02:20:10;2.50;;;0.73;;
15126;SDS011;7664;52.008;4.748;2023-08-31T02:22:40;0.60;;;0.47;;
15126;SDS011;7664;52.008;4.748;2023-08-31T02:25:08;1.30;;;0.70;;
15126;SDS011;7664;52.008;4.748;2023-08-31T02:27:37;0.80;;;0.80;;
15126;SDS011;7664;52.008;4.748;2023-08-31T02:30:07;2.15;;;0.82;;
15126;SDS011;7664;52.008;4.748;2023-08-31T02:32:38;2.55;;;0.63;;
15126;SDS011;7664;52.008;4.748;2023-08-31T02:35:06;1.05;;;0.60;;
15126;SDS011;7664;52.008;4.748;2023-08-31T02:37:34;1.95;;;0.60;;
15126;SDS011;7664;52.008;4.748;2023-08-31T02:40:03;1.73;;;0.70;;
15126;SDS011;7664;52.008;4.748;2023-08-31T02:42:34;1.55;;;0.68;;
15126;SDS011;7664;52.008;4.748;2023-08-31T02:45:03;1.90;;;0.88;;
15126;SDS011;7664;52.008;4.748;2023-08-31T02:47:31;1.88;;;1.02;;
15126;SDS011;7664;52.008;4.748;2023-08-31T02:50:00;2.83;;;1.10;;
15126;SDS011;7664;52.008;4.748;2023-08-31T02:52:29;2.28;;;1.23;;
15126;SDS011;7664;52.008;4.748;2023-08-31T02:54:57;4.13;;;1.20;;
15126;SDS011;7664;52.008;4.748;2023-08-31T02:57:25;2.65;;;1.67;;
15126;SDS011;7664;52.008;4.748;2023-08-31T02:59:53;1.35;;;1.23;;
15126;SDS011;7664;52.008;4.748;2023-08-31T03:02:21;3.25;;;1.73;;
15126;SDS011;7664;52.008;4.748;2023-08-31T03:04:49;2.45;;;2.03;;
15126;SDS011;7664;52.008;4.748;2023-08-31T03:07:18;2.50;;;1.70;;
15126;SDS011;7664;52.008;4.748;2023-08-31T03:09:48;1.95;;;1.65;;
15126;SDS011;7664;52.008;4.748;2023-08-31T03:12:17;3.58;;;1.70;;
15126;SDS011;7664;52.008;4.748;2023-08-31T03:14:45;2.40;;;1.77;;
15126;SDS011;7664;52.008;4.748;2023-08-31T03:17:12;3.42;;;1.83;;
15126;SDS011;7664;52.008;4.748;2023-08-31T03:19:41;2.53;;;1.73;;
15126;SDS011;7664;52.008;4.748;2023-08-31T03:22:10;3.53;;;2.15;;
15126;SDS011;7664;52.008;4.748;2023-08-31T03:24:40;5.63;;;2.47;;
15126;SDS011;7664;52.008;4.748;2023-08-31T03:27:08;4.82;;;2.03;;
15126;SDS011;7664;52.008;4.748;2023-08-31T03:29:36;2.53;;;2.08;;
15126;SDS011;7664;52.008;4.748;2023-08-31T03:32:05;3.60;;;1.90;;
15126;SDS011;7664;52.008;4.748;2023-08-31T03:34:33;1.80;;;1.60;;
15126;SDS011;7664;52.008;4.748;2023-08-31T03:37:01;4.32;;;2.28;;
15126;SDS011;7664;52.008;4.748;2023-08-31T03:39:29;2.55;;;1.73;;
15126;SDS011;7664;52.008;4.748;2023-08-31T03:41:59;3.45;;;2.47;;
15126;SDS011;7664;52.008;4.748;2023-08-31T03:44:27;1.92;;;1.58;;
15126;SDS011;7664;52.008;4.748;2023-08-31T03:46:55;2.15;;;1.83;;
15126;SDS011;7664;52.008;4.748;2023-08-31T03:49:22;4.75;;;2.30;;
15126;SDS011;7664;52.008;4.748;2023-08-31T03:51:50;2.35;;;2.03;;
15126;SDS011;7664;52.008;4.748;2023-08-31T03:54:20;3.22;;;2.40;;
15126;SDS011;7664;52.008;4.748;2023-08-31T03:56:48;3.55;;;1.70;;
15126;SDS011;7664;52.008;4.748;2023-08-31T03:59:18;3.45;;;2.08;;
15126;SDS011;7664;52.008;4.748;2023-08-31T04:01:46;3.08;;;2.20;;
15126;SDS011;7664;52.008;4.748;2023-08-31T04:04:14;4.57;;;2.65;;
15126;SDS011;7664;52.008;4.748;2023-08-31T04:06:42;5.07;;;2.10;;
15126;SDS011;7664;52.008;4.748;2023-08-31T04:09:11;3.28;;;2.08;;
15126;SDS011;7664;52.008;4.748;2023-08-31T04:11:39;2.42;;;1.70;;
15126;SDS011;7664;52.008;4.748;2023-08-31T04:14:07;2.67;;;1.60;;
15126;SDS011;7664;52.008;4.748;2023-08-31T04:16:37;2.25;;;1.70;;
15126;SDS011;7664;52.008;4.748;2023-08-31T04:19:05;4.53;;;2.22;;
15126;SDS011;7664;52.008;4.748;2023-08-31T04:21:33;3.47;;;1.60;;
15126;SDS011;7664;52.008;4.748;2023-08-31T04:24:02;2.67;;;1.55;;
15126;SDS011;7664;52.008;4.748;2023-08-31T04:26:30;3.10;;;1.48;;
15126;SDS011;7664;52.008;4.748;2023-08-31T04:28:58;2.30;;;0.93;;
15126;SDS011;7664;52.008;4.748;2023-08-31T04:31:26;2.80;;;1.38;;
15126;SDS011;7664;52.008;4.748;2023-08-31T04:33:56;4.75;;;1.10;;
15126;SDS011;7664;52.008;4.748;2023-08-31T04:36:25;1.83;;;1.00;;
15126;SDS011;7664;52.008;4.748;2023-08-31T04:38:53;3.90;;;1.27;;
15126;SDS011;7664;52.008;4.748;2023-08-31T04:41:21;1.83;;;1.05;;
15126;SDS011;7664;52.008;4.748;2023-08-31T04:43:49;3.47;;;1.33;;
15126;SDS011;7664;52.008;4.748;2023-08-31T04:46:18;1.98;;;1.10;;
15126;SDS011;7664;52.008;4.748;2023-08-31T04:48:46;0.98;;;0.90;;
15126;SDS011;7664;52.008;4.748;2023-08-31T04:55:05;1.80;;;0.95;;
15126;SDS011;7664;52.008;4.748;2023-08-31T04:57:40;3.33;;;1.52;;
15126;SDS011;7664;52.008;4.748;2023-08-31T05:00:08;4.13;;;1.00;;
15126;SDS011;7664;52.008;4.748;2023-08-31T05:02:38;1.88;;;1.08;;
15126;SDS011;7664;52.008;4.748;2023-08-31T05:05:07;3.78;;;1.08;;
15126;SDS011;7664;52.008;4.748;2023-08-31T05:07:37;3.40;;;0.85;;
15126;SDS011;7664;52.008;4.748;2023-08-31T05:10:06;1.75;;;1.00;;
15126;SDS011;7664;52.008;4.748;2023-08-31T05:12:35;1.02;;;0.90;;
15126;SDS011;7664;52.008;4.748;2023-08-31T05:15:03;3.22;;;1.20;;
15126;SDS011;7664;52.008;4.748;2023-08-31T05:17:31;1.98;;;0.77;;
15126;SDS011;7664;52.008;4.748;2023-08-31T05:20:00;0.85;;;0.77;;
15126;SDS011;7664;52.008;4.748;2023-08-31T05:22:30;3.28;;;0.85;;
15126;SDS011;7664;52.008;4.748;2023-08-31T05:24:59;2.80;;;1.08;;
15126;SDS011;7664;52.008;4.748;2023-08-31T05:27:27;2.25;;;1.10;;
15126;SDS011;7664;52.008;4.748;2023-08-31T05:29:56;2.55;;;1.17;;
15126;SDS011;7664;52.008;4.748;2023-08-31T05:32:23;5.18;;;0.90;;
15126;SDS011;7664;52.008;4.748;2023-08-31T05:34:55;2.20;;;1.02;;
15126;SDS011;7664;52.008;4.748;2023-08-31T05:37:24;3.97;;;1.02;;
15126;SDS011;7664;52.008;4.748;2023-08-31T05:39:52;2.60;;;0.90;;
15126;SDS011;7664;52.008;4.748;2023-08-31T05:42:22;1.70;;;0.95;;
15126;SDS011;7664;52.008;4.748;2023-08-31T05:44:50;2.88;;;1.20;;
15126;SDS011;7664;52.008;4.748;2023-08-31T05:47:18;0.98;;;0.80;;
15126;SDS011;7664;52.008;4.748;2023-08-31T05:49:46;1.73;;;0.80;;
15126;SDS011;7664;52.008;4.748;2023-08-31T05:52:15;1.60;;;0.90;;
15126;SDS011;7664;52.008;4.748;2023-08-31T05:54:42;3.22;;;1.15;;
15126;SDS011;7664;52.008;4.748;2023-08-31T05:57:11;3.83;;;1.00;;
15126;SDS011;7664;52.008;4.748;2023-08-31T05:59:40;1.27;;;1.13;;
15126;SDS011;7664;52.008;4.748;2023-08-31T06:02:08;2.10;;;1.00;;
15126;SDS011;7664;52.008;4.748;2023-08-31T06:04:37;5.80;;;1.27;;
15126;SDS011;7664;52.008;4.748;2023-08-31T06:07:05;2.25;;;1.25;;
15126;SDS011;7664;52.008;4.748;2023-08-31T06:09:33;2.97;;;1.10;;
15126;SDS011;7664;52.008;4.748;2023-08-31T06:12:01;4.53;;;1.02;;
15126;SDS011;7664;52.008;4.748;2023-08-31T06:14:29;2.15;;;1.33;;
15126;SDS011;7664;52.008;4.748;2023-08-31T06:16:58;2.85;;;1.17;;
15126;SDS011;7664;52.008;4.748;2023-08-31T06:19:26;1.20;;;1.10;;
15126;SDS011;7664;52.008;4.748;2023-08-31T06:21:54;4.28;;;1.45;;
15126;SDS011;7664;52.008;4.748;2023-08-31T06:24:22;3.38;;;1.30;;
15126;SDS011;7664;52.008;4.748;2023-08-31T06:26:50;2.28;;;1.20;;
15126;SDS011;7664;52.008;4.748;2023-08-31T06:29:21;2.42;;;1.63;;
15126;SDS011;7664;52.008;4.748;2023-08-31T06:31:49;2.40;;;1.10;;
15126;SDS011;7664;52.008;4.748;2023-08-31T06:34:18;1.88;;;1.02;;
15126;SDS011;7664;52.008;4.748;2023-08-31T06:36:46;5.57;;;1.58;;
15126;SDS011;7664;52.008;4.748;2023-08-31T06:39:14;1.40;;;1.05;;
15126;SDS011;7664;52.008;4.748;2023-08-31T06:41:43;2.97;;;1.58;;
15126;SDS011;7664;52.008;4.748;2023-08-31T06:44:11;1.75;;;0.85;;
15126;SDS011;7664;52.008;4.748;2023-08-31T06:46:39;6.53;;;1.52;;
15126;SDS011;7664;52.008;4.748;2023-08-31T06:49:07;1.95;;;1.40;;
15126;SDS011;7664;52.008;4.748;2023-08-31T06:51:37;2.35;;;1.38;;
15126;SDS011;7664;52.008;4.748;2023-08-31T06:54:05;1.90;;;1.30;;
15126;SDS011;7664;52.008;4.748;2023-08-31T06:56:34;2.40;;;1.48;;
15126;SDS011;7664;52.008;4.748;2023-08-31T06:59:02;2.83;;;1.40;;
15126;SDS011;7664;52.008;4.748;2023-08-31T07:01:31;2.55;;;1.15;;
15126;SDS011;7664;52.008;4.748;2023-08-31T07:03:59;2.13;;;1.20;;
15126;SDS011;7664;52.008;4.748;2023-08-31T07:06:27;1.55;;;1.30;;
15126;SDS011;7664;52.008;4.748;2023-08-31T07:08:56;1.67;;;1.17;;
15126;SDS011;7664;52.008;4.748;2023-08-31T07:11:24;4.85;;;1.52;;
15126;SDS011;7664;52.008;4.748;2023-08-31T07:13:54;4.10;;;1.42;;
15126;SDS011;7664;52.008;4.748;2023-08-31T07:16:24;2.15;;;1.48;;
15126;SDS011;7664;52.008;4.748;2023-08-31T07:18:52;4.03;;;1.60;;
15126;SDS011;7664;52.008;4.748;2023-08-31T07:21:20;2.60;;;1.20;;
15126;SDS011;7664;52.008;4.748;2023-08-31T07:23:48;3.97;;;1.58;;
15126;SDS011;7664;52.008;4.748;2023-08-31T07:26:18;3.40;;;1.33;;
15126;SDS011;7664;52.008;4.748;2023-08-31T07:28:46;2.13;;;1.20;;
15126;SDS011;7664;52.008;4.748;2023-08-31T07:31:14;1.90;;;0.90;;
15126;SDS011;7664;52.008;4.748;2023-08-31T07:33:43;2.78;;;1.17;;
15126;SDS011;7664;52.008;4.748;2023-08-31T07:36:11;0.85;;;0.70;;
15126;SDS011;7664;52.008;4.748;2023-08-31T07:38:39;4.00;;;1.10;;
15126;SDS011;7664;52.008;4.748;2023-08-31T07:41:07;2.42;;;0.90;;
15126;SDS011;7664;52.008;4.748;2023-08-31T07:43:37;4.18;;;0.80;;
15126;SDS011;7664;52.008;4.748;2023-08-31T07:46:20;1.10;;;0.70;;
15126;SDS011;7664;52.008;4.748;2023-08-31T07:48:48;2.22;;;0.60;;
15126;SDS011;7664;52.008;4.748;2023-08-31T07:51:19;1.88;;;0.55;;
15126;SDS011;7664;52.008;4.748;2023-08-31T07:53:49;1.40;;;0.60;;
15126;SDS011;7664;52.008;4.748;2023-08-31T07:56:17;2.67;;;0.80;;
15126;SDS011;7664;52.008;4.748;2023-08-31T07:58:47;1.02;;;0.60;;
15126;SDS011;7664;52.008;4.748;2023-08-31T08:01:15;3.25;;;0.70;;
15126;SDS011;7664;52.008;4.748;2023-08-31T08:03:44;2.25;;;0.60;;
15126;SDS011;7664;52.008;4.748;2023-08-31T08:06:12;1.45;;;0.93;;
15126;SDS011;7664;52.008;4.748;2023-08-31T08:08:40;0.98;;;0.40;;
15126;SDS011;7664;52.008;4.748;2023-08-31T08:11:08;2.42;;;0.50;;
15126;SDS011;7664;52.008;4.748;2023-08-31T08:13:36;1.58;;;0.70;;
15126;SDS011;7664;52.008;4.748;2023-08-31T08:16:06;2.70;;;0.70;;
15126;SDS011;7664;52.008;4.748;2023-08-31T08:18:35;1.40;;;0.70;;
15126;SDS011;7664;52.008;4.748;2023-08-31T08:21:03;2.38;;;0.55;;
15126;SDS011;7664;52.008;4.748;2023-08-31T08:23:31;1.67;;;0.70;;
15126;SDS011;7664;52.008;4.748;2023-08-31T08:25:59;3.35;;;0.65;;
15126;SDS011;7664;52.008;4.748;2023-08-31T08:28:27;2.00;;;0.77;;
15126;SDS011;7664;52.008;4.748;2023-08-31T08:30:55;0.80;;;0.50;;
15126;SDS011;7664;52.008;4.748;2023-08-31T08:33:24;2.65;;;0.65;;
15126;SDS011;7664;52.008;4.748;2023-08-31T08:35:55;3.70;;;0.40;;
15126;SDS011;7664;52.008;4.748;2023-08-31T08:38:24;1.70;;;0.40;;
15126;SDS011;7664;52.008;4.748;2023-08-31T08:40:53;2.80;;;0.95;;
15126;SDS011;7664;52.008;4.748;2023-08-31T08:43:22;3.47;;;0.88;;
15126;SDS011;7664;52.008;4.748;2023-08-31T08:45:53;1.75;;;0.57;;
15126;SDS011;7664;52.008;4.748;2023-08-31T08:48:22;2.15;;;0.60;;
15126;SDS011;7664;52.008;4.748;2023-08-31T08:50:52;1.27;;;0.70;;
15126;SDS011;7664;52.008;4.748;2023-08-31T08:53:22;0.88;;;0.52;;
15126;SDS011;7664;52.008;4.748;2023-08-31T08:55:50;2.15;;;0.68;;
15126;SDS011;7664;52.008;4.748;2023-08-31T08:58:18;3.15;;;0.60;;
15126;SDS011;7664;52.008;4.748;2023-08-31T09:00:46;1.98;;;0.57;;
15126;SDS011;7664;52.008;4.748;2023-08-31T09:03:15;1.65;;;0.50;;
15126;SDS011;7664;52.008;4.748;2023-08-31T09:05:43;1.73;;;0.57;;
15126;SDS011;7664;52.008;4.748;2023-08-31T09:08:13;2.53;;;0.60;;
15126;SDS011;7664;52.008;4.748;2023-08-31T09:10:42;4.15;;;0.80;;
15126;SDS011;7664;52.008;4.748;2023-08-31T09:13:11;1.73;;;0.50;;
15126;SDS011;7664;52.008;4.748;2023-08-31T09:15:42;3.05;;;0.57;;
15126;SDS011;7664;52.008;4.748;2023-08-31T09:18:15;2.45;;;0.68;;
15126;SDS011;7664;52.008;4.748;2023-08-31T09:20:44;2.05;;;0.57;;
15126;SDS011;7664;52.008;4.748;2023-08-31T09:23:16;0.65;;;0.40;;
15126;SDS011;7664;52.008;4.748;2023-08-31T09:25:45;2.63;;;0.70;;
15126;SDS011;7664;52.008;4.748;2023-08-31T09:28:15;1.90;;;0.50;;
15126;SDS011;7664;52.008;4.748;2023-08-31T09:30:47;1.90;;;0.77;;
15126;SDS011;7664;52.008;4.748;2023-08-31T09:33:17;2.97;;;0.75;;
15126;SDS011;7664;52.008;4.748;2023-08-31T09:35:50;3.15;;;0.75;;
15126;SDS011;7664;52.008;4.748;2023-08-31T09:38:20;2.30;;;0.50;;
15126;SDS011;7664;52.008;4.748;2023-08-31T09:40:48;2.30;;;0.60;;
15126;SDS011;7664;52.008;4.748;2023-08-31T09:43:20;2.35;;;0.75;;
15126;SDS011;7664;52.008;4.748;2023-08-31T09:45:49;3.00;;;0.50;;
15126;SDS011;7664;52.008;4.748;2023-08-31T09:48:19;3.10;;;0.88;;
15126;SDS011;7664;52.008;4.748;2023-08-31T09:50:49;1.42;;;0.47;;
15126;SDS011;7664;52.008;4.748;2023-08-31T09:53:20;1.73;;;0.70;;
15126;SDS011;7664;52.008;4.748;2023-08-31T09:55:54;0.70;;;0.20;;
15126;SDS011;7664;52.008;4.748;2023-08-31T09:58:24;2.58;;;0.40;;
15126;SDS011;7664;52.008;4.748;2023-08-31T10:00:52;2.42;;;0.68;;
15126;SDS011;7664;52.008;4.748;2023-08-31T10:03:21;2.55;;;0.70;;
15126;SDS011;7664;52.008;4.748;2023-08-31T10:05:50;1.98;;;0.50;;
15126;SDS011;7664;52.008;4.748;2023-08-31T10:08:18;4.07;;;0.60;;
15126;SDS011;7664;52.008;4.748;2023-08-31T10:10:47;2.40;;;0.73;;
15126;SDS011;7664;52.008;4.748;2023-08-31T10:13:15;1.00;;;0.47;;
15126;SDS011;7664;52.008;4.748;2023-08-31T10:15:45;1.45;;;0.73;;
15126;SDS011;7664;52.008;4.748;2023-08-31T10:18:16;1.48;;;0.40;;
15126;SDS011;7664;52.008;4.748;2023-08-31T10:20:44;1.73;;;0.55;;
15126;SDS011;7664;52.008;4.748;2023-08-31T10:23:13;3.83;;;0.50;;
15126;SDS011;7664;52.008;4.748;2023-08-31T10:26:02;1.38;;;0.75;;
15126;SDS011;7664;52.008;4.748;2023-08-31T10:28:38;1.77;;;0.55;;
15126;SDS011;7664;52.008;4.748;2023-08-31T10:31:07;0.40;;;0.30;;
15126;SDS011;7664;52.008;4.748;2023-08-31T10:33:40;3.33;;;0.50;;
15126;SDS011;7664;52.008;4.748;2023-08-31T10:36:09;1.08;;;0.50;;
15126;SDS011;7664;52.008;4.748;2023-08-31T10:38:39;3.80;;;0.70;;
15126;SDS011;7664;52.008;4.748;2023-08-31T10:41:19;3.55;;;0.68;;
15126;SDS011;7664;52.008;4.748;2023-08-31T10:43:49;2.08;;;0.50;;
15126;SDS011;7664;52.008;4.748;2023-08-31T10:46:25;2.80;;;0.52;;
15126;SDS011;7664;52.008;4.748;2023-08-31T10:48:55;1.33;;;1.02;;
15126;SDS011;7664;52.008;4.748;2023-08-31T10:51:25;1.23;;;0.50;;
15126;SDS011;7664;52.008;4.748;2023-08-31T10:54:03;1.10;;;0.60;;
15126;SDS011;7664;52.008;4.748;2023-08-31T10:56:54;2.17;;;0.50;;
15126;SDS011;7664;52.008;4.748;2023-08-31T10:59:43;2.53;;;0.60;;
15126;SDS011;7664;52.008;4.748;2023-08-31T11:02:29;2.95;;;0.57;;
15126;SDS011;7664;52.008;4.748;2023-08-31T11:05:02;1.35;;;0.50;;
15126;SDS011;7664;52.008;4.748;2023-08-31T11:07:34;0.75;;;0.50;;
15126;SDS011;7664;52.008;4.748;2023-08-31T11:10:13;2.42;;;1.00;;
15126;SDS011;7664;52.008;4.748;2023-08-31T11:12:45;2.97;;;0.80;;
15126;SDS011;7664;52.008;4.748;2023-08-31T11:15:15;0.88;;;0.55;;
15126;SDS011;7664;52.008;4.748;2023-08-31T11:17:44;1.48;;;0.50;;
15126;SDS011;7664;52.008;4.748;2023-08-31T11:20:14;0.45;;;0.40;;
15126;SDS011;7664;52.008;4.748;2023-08-31T11:22:44;1.27;;;0.50;;
15126;SDS011;7664;52.008;4.748;2023-08-31T11:25:16;2.95;;;0.65;;
15126;SDS011;7664;52.008;4.748;2023-08-31T11:27:53;2.00;;;0.50;;
15126;SDS011;7664;52.008;4.748;2023-08-31T11:30:22;4.78;;;0.90;;
15126;SDS011;7664;52.008;4.748;2023-08-31T11:32:52;3.53;;;0.52;;
15126;SDS011;7664;52.008;4.748;2023-08-31T11:35:20;2.92;;;0.52;;
15126;SDS011;7664;52.008;4.748;2023-08-31T11:37:50;3.22;;;0.60;;
15126;SDS011;7664;52.008;4.748;2023-08-31T11:40:19;1.10;;;0.52;;
15126;SDS011;7664;52.008;4.748;2023-08-31T11:42:48;0.60;;;0.40;;
15126;SDS011;7664;52.008;4.748;2023-08-31T11:45:17;1.13;;;0.60;;
15126;SDS011;7664;52.008;4.748;2023-08-31T11:47:46;1.23;;;0.40;;
15126;SDS011;7664;52.008;4.748;2023-08-31T11:50:16;1.67;;;0.77;;
15126;SDS011;7664;52.008;4.748;2023-08-31T11:52:45;1.83;;;0.80;;
15126;SDS011;7664;52.008;4.748;2023-08-31T11:55:15;0.95;;;0.50;;
15126;SDS011;7664;52.008;4.748;2023-08-31T11:57:48;2.28;;;0.60;;
15126;SDS011;7664;52.008;4.748;2023-08-31T12:00:18;2.58;;;0.82;;
15126;SDS011;7664;52.008;4.748;2023-08-31T12:02:54;3.58;;;0.90;;
15126;SDS011;7664;52.008;4.748;2023-08-31T12:05:23;3.85;;;0.73;;
15126;SDS011;7664;52.008;4.748;2023-08-31T12:07:53;2.78;;;0.70;;
15126;SDS011;7664;52.008;4.748;2023-08-31T12:10:23;1.48;;;0.55;;
15126;SDS011;7664;52.008;4.748;2023-08-31T12:12:52;2.03;;;0.63;;
15126;SDS011;7664;52.008;4.748;2023-08-31T12:15:34;2.72;;;0.98;;
15126;SDS011;7664;52.008;4.748;2023-08-31T12:18:06;1.67;;;0.80;;
15126;SDS011;7664;52.008;4.748;2023-08-31T12:20:41;3.03;;;0.55;;
15126;SDS011;7664;52.008;4.748;2023-08-31T12:23:10;1.08;;;0.65;;
15126;SDS011;7664;52.008;4.748;2023-08-31T12:25:45;2.28;;;0.73;;
15126;SDS011;7664;52.008;4.748;2023-08-31T12:28:14;1.67;;;0.80;;
15126;SDS011;7664;52.008;4.748;2023-08-31T12:30:48;1.70;;;0.60;;
15126;SDS011;7664;52.008;4.748;2023-08-31T12:33:16;2.78;;;0.80;;
15126;SDS011;7664;52.008;4.748;2023-08-31T12:35:46;2.10;;;0.63;;
15126;SDS011;7664;52.008;4.748;2023-08-31T12:38:14;21.33;;;2.15;;
15126;SDS011;7664;52.008;4.748;2023-08-31T12:40:42;1.13;;;0.43;;
15126;SDS011;7664;52.008;4.748;2023-08-31T12:43:10;1.17;;;0.55;;
15126;SDS011;7664;52.008;4.748;2023-08-31T12:45:39;1.15;;;0.77;;
15126;SDS011;7664;52.008;4.748;2023-08-31T12:48:08;1.33;;;0.60;;
15126;SDS011;7664;52.008;4.748;2023-08-31T12:50:37;0.57;;;0.50;;
15126;SDS011;7664;52.008;4.748;2023-08-31T12:53:05;5.38;;;0.77;;
15126;SDS011;7664;52.008;4.748;2023-08-31T12:55:33;1.55;;;0.55;;
15126;SDS011;7664;52.008;4.748;2023-08-31T12:58:01;2.63;;;0.80;;
15126;SDS011;7664;52.008;4.748;2023-08-31T13:00:30;2.58;;;0.60;;
15126;SDS011;7664;52.008;4.748;2023-08-31T13:02:58;0.85;;;0.43;;
15126;SDS011;7664;52.008;4.748;2023-08-31T13:05:28;2.42;;;0.43;;
15126;SDS011;7664;52.008;4.748;2023-08-31T13:07:56;1.77;;;0.77;;
15126;SDS011;7664;52.008;4.748;2023-08-31T13:10:24;2.65;;;0.68;;
15126;SDS011;7664;52.008;4.748;2023-08-31T13:12:52;0.80;;;0.68;;
15126;SDS011;7664;52.008;4.748;2023-08-31T13:15:20;0.98;;;0.55;;
15126;SDS011;7664;52.008;4.748;2023-08-31T13:17:48;2.17;;;0.70;;
15126;SDS011;7664;52.008;4.748;2023-08-31T13:20:17;1.95;;;0.55;;
15126;SDS011;7664;52.008;4.748;2023-08-31T13:22:46;1.25;;;0.77;;
15126;SDS011;7664;52.008;4.748;2023-08-31T13:25:14;2.38;;;0.70;;
15126;SDS011;7664;52.008;4.748;2023-08-31T13:27:42;2.17;;;0.70;;
15126;SDS011;7664;52.008;4.748;2023-08-31T13:30:11;1.83;;;0.60;;
15126;SDS011;7664;52.008;4.748;2023-08-31T13:32:39;2.33;;;0.80;;
15126;SDS011;7664;52.008;4.748;2023-08-31T13:35:08;3.78;;;0.68;;
15126;SDS011;7664;52.008;4.748;2023-08-31T13:37:37;0.82;;;0.60;;
15126;SDS011;7664;52.008;4.748;2023-08-31T13:40:07;2.30;;;0.80;;
15126;SDS011;7664;52.008;4.748;2023-08-31T13:42:36;2.78;;;0.98;;
15126;SDS011;7664;52.008;4.748;2023-08-31T13:45:06;2.90;;;0.60;;
15126;SDS011;7664;52.008;4.748;2023-08-31T13:47:35;1.27;;;0.47;;
15126;SDS011;7664;52.008;4.748;2023-08-31T13:50:04;0.98;;;0.52;;
15126;SDS011;7664;52.008;4.748;2023-08-31T13:52:33;1.23;;;0.77;;
15126;SDS011;7664;52.008;4.748;2023-08-31T13:55:01;1.75;;;0.80;;
15126;SDS011;7664;52.008;4.748;2023-08-31T13:57:31;2.33;;;0.93;;
15126;SDS011;7664;52.008;4.748;2023-08-31T13:59:59;1.20;;;0.50;;
15126;SDS011;7664;52.008;4.748;2023-08-31T14:02:27;2.75;;;0.68;;
15126;SDS011;7664;52.008;4.748;2023-08-31T14:04:55;1.45;;;0.70;;
15126;SDS011;7664;52.008;4.748;2023-08-31T14:07:23;3.25;;;0.85;;
15126;SDS011;7664;52.008;4.748;2023-08-31T14:09:51;2.35;;;0.60;;
15126;SDS011;7664;52.008;4.748;2023-08-31T14:12:19;2.67;;;0.70;;
15126;SDS011;7664;52.008;4.748;2023-08-31T14:14:49;3.53;;;1.10;;
15126;SDS011;7664;52.008;4.748;2023-08-31T14:17:17;12.77;;;1.05;;
15126;SDS011;7664;52.008;4.748;2023-08-31T14:19:45;3.20;;;1.00;;
15126;SDS011;7664;52.008;4.748;2023-08-31T14:22:13;1.48;;;0.75;;
15126;SDS011;7664;52.008;4.748;2023-08-31T14:24:41;2.70;;;0.68;;
15126;SDS011;7664;52.008;4.748;2023-08-31T14:27:12;1.20;;;0.63;;
15126;SDS011;7664;52.008;4.748;2023-08-31T14:29:40;2.15;;;0.73;;
15126;SDS011;7664;52.008;4.748;2023-08-31T14:32:09;1.15;;;0.60;;
15126;SDS011;7664;52.008;4.748;2023-08-31T14:34:37;1.55;;;0.60;;
15126;SDS011;7664;52.008;4.748;2023-08-31T14:37:06;1.52;;;0.52;;
15126;SDS011;7664;52.008;4.748;2023-08-31T14:39:34;2.33;;;0.70;;
15126;SDS011;7664;52.008;4.748;2023-08-31T14:42:03;0.98;;;0.70;;
15126;SDS011;7664;52.008;4.748;2023-08-31T14:44:31;1.20;;;0.73;;
15126;SDS011;7664;52.008;4.748;2023-08-31T14:46:59;2.22;;;0.80;;
15126;SDS011;7664;52.008;4.748;2023-08-31T14:49:29;2.30;;;0.60;;
15126;SDS011;7664;52.008;4.748;2023-08-31T14:51:57;2.45;;;0.80;;
15126;SDS011;7664;52.008;4.748;2023-08-31T14:54:31;2.22;;;0.88;;
15126;SDS011;7664;52.008;4.748;2023-08-31T14:56:59;2.22;;;0.90;;
15126;SDS011;7664;52.008;4.748;2023-08-31T14:59:29;3.58;;;0.93;;
15126;SDS011;7664;52.008;4.748;2023-08-31T15:01:58;1.27;;;0.63;;
15126;SDS011;7664;52.008;4.748;2023-08-31T15:04:29;1.65;;;0.70;;
15126;SDS011;7664;52.008;4.748;2023-08-31T15:06:57;1.83;;;0.50;;
15126;SDS011;7664;52.008;4.748;2023-08-31T15:09:26;1.35;;;0.30;;
15126;SDS011;7664;52.008;4.748;2023-08-31T15:11:54;0.82;;;0.50;;
15126;SDS011;7664;52.008;4.748;2023-08-31T15:14:22;2.45;;;0.63;;
15126;SDS011;7664;52.008;4.748;2023-08-31T15:16:51;1.17;;;0.60;;
15126;SDS011;7664;52.008;4.748;2023-08-31T15:19:19;1.30;;;0.55;;